Cowan, Indiana
Current Conditions -  °F | °C
As of 2:53 AM on Monday 22 Dec 2014 (Local Time) from KMIE Reporting Station
Clear Clear  
Wind Chill: 23°   Ceiling: Unl
Heat Index: 28°   Visibility: 7mi
Dew Point: 24°   Wind: 5mph
Humidity: 85%   Direction: 130°SE
Pressure: 30.05"   Gusts: NA
Location:  40.1286°N, 85.3767°W
Report Text: KMIE 220753Z AUTO 13004KT 7SM CLR M02/M04 A3005 RMK AO2 SLP181 T10221044
Loading
Personal Weather Stations






























Interactive Weather Map New forecast layout! Learn more

10-Day Weather Forecast

Advertisements
Track Severe Weather on mobile